createdAt,value
2018-11-22T12:16:05.289Z,47.79
2018-11-22T12:17:09.276Z,47.85
2018-11-22T12:18:12.760Z,48.00
2018-11-22T12:19:16.754Z,47.96
2018-11-22T12:20:21.242Z,48.06
2018-11-22T12:21:24.653Z,48.43
2018-11-22T12:22:28.097Z,48.34
2018-11-22T12:23:31.721Z,47.86
2018-11-22T12:24:35.259Z,48.55
2018-11-22T12:25:38.696Z,48.48
2018-11-22T12:26:43.015Z,48.60
2018-11-22T12:27:47.839Z,48.54
2018-11-22T12:28:51.466Z,48.86
2018-11-22T12:29:54.887Z,48.70
2018-11-22T12:31:06.088Z,48.71
2018-11-22T12:32:34.115Z,48.47
2018-11-22T12:33:38.608Z,48.56
2018-11-22T12:34:48.320Z,48.74
2018-11-22T12:35:57.758Z,47.98
2018-11-22T12:37:07.863Z,48.23
2018-11-22T12:38:17.395Z,47.87
2018-11-22T12:39:22.016Z,47.99
2018-11-22T12:40:26.531Z,48.17
2018-11-22T12:41:31.448Z,47.79
2018-11-22T12:42:36.016Z,48.34
2018-11-22T12:43:40.733Z,48.34
2018-11-22T12:44:45.008Z,48.22
2018-11-22T12:45:49.874Z,47.97
2018-11-22T12:46:54.488Z,48.12
2018-11-22T12:47:59.548Z,48.22
2018-11-22T12:49:04.358Z,47.88
2018-11-22T12:50:10.586Z,47.89
2018-11-22T12:51:15.875Z,48.50
2018-11-22T12:52:20.210Z,48.52
2018-11-22T12:53:24.772Z,48.58
2018-11-22T12:54:29.569Z,48.38
2018-11-22T12:55:34.255Z,48.89
2018-11-22T12:56:39.163Z,48.26
2018-11-22T12:57:44.209Z,48.82
2018-11-22T12:58:48.926Z,48.46
2018-11-22T12:59:53.532Z,49.34
2018-11-22T13:00:58.967Z,49.00
2018-11-22T13:02:03.706Z,49.20
2018-11-22T13:03:07.840Z,48.76
2018-11-22T13:04:12.450Z,49.15
2018-11-22T13:05:18.266Z,48.61
2018-11-22T13:06:23.225Z,49.26
2018-11-22T13:07:27.418Z,49.28
2018-11-22T13:08:32.163Z,48.90
2018-11-22T13:09:36.644Z,49.37
2018-11-22T13:10:41.419Z,49.04
2018-11-22T13:11:47.746Z,48.92
2018-11-22T13:12:50.925Z,49.04
2018-11-22T13:13:55.824Z,48.67
2018-11-22T13:15:00.273Z,48.71
2018-11-22T13:16:05.005Z,49.03
2018-11-22T13:17:09.880Z,48.96
2018-11-22T13:18:14.610Z,48.89
2018-11-22T13:19:20.014Z,48.76
2018-11-22T13:20:24.477Z,48.70
2018-11-22T13:21:28.771Z,48.26
2018-11-22T13:22:33.121Z,48.46
2018-11-22T13:23:37.662Z,48.52
2018-11-22T13:24:41.990Z,48.73
2018-11-22T13:25:46.730Z,48.83
2018-11-22T13:26:51.192Z,48.50
2018-11-22T13:27:55.715Z,48.71
2018-11-22T13:28:59.846Z,48.77
2018-11-22T13:30:04.509Z,48.15
2018-11-22T13:31:10.002Z,48.78
2018-11-22T13:32:21.246Z,48.44
2018-11-22T13:33:19.527Z,48.79
2018-11-22T13:34:23.821Z,48.91
2018-11-22T13:35:28.388Z,48.54
2018-11-22T13:36:33.117Z,49.22
2018-11-22T13:37:37.675Z,49.26
2018-11-22T13:38:42.246Z,48.73
2018-11-22T13:39:46.882Z,49.31
2018-11-22T13:40:51.538Z,48.75
2018-11-22T13:41:56.155Z,48.84
2018-11-22T13:43:00.389Z,49.00
2018-11-22T13:44:04.777Z,49.52
2018-11-22T13:45:11.672Z,49.35
2018-11-22T13:46:16.360Z,49.21
2018-11-22T13:47:21.137Z,48.99
2018-11-22T13:48:25.639Z,49.09
2018-11-22T13:49:30.239Z,49.20
2018-11-22T13:50:41.713Z,49.69
2018-11-22T13:51:40.700Z,49.48
2018-11-22T13:52:46.839Z,49.26
2018-11-22T13:53:51.459Z,49.81
2018-11-22T13:54:55.922Z,48.94
2018-11-22T13:56:00.635Z,48.79
2018-11-22T13:57:05.416Z,49.44
2018-11-22T13:58:10.014Z,48.71
2018-11-22T13:59:15.614Z,48.62
2018-11-22T14:00:28.306Z,48.68
2018-11-22T14:01:32.846Z,49.51
2018-11-22T14:02:37.430Z,48.81
2018-11-22T14:03:41.926Z,48.87
2018-11-22T14:04:46.596Z,48.72
2018-11-22T14:05:51.306Z,49.14
2018-11-22T14:06:55.942Z,48.81
2018-11-22T14:08:00.739Z,49.45
2018-11-22T14:09:07.310Z,48.72
2018-11-22T14:10:14.196Z,49.46
2018-11-22T14:11:18.797Z,49.51
2018-11-22T14:12:23.670Z,49.34
2018-11-22T14:13:28.255Z,49.28
2018-11-22T14:14:32.817Z,49.85
2018-11-22T14:15:37.401Z,50.47
2018-11-22T14:16:41.832Z,50.44
2018-11-22T14:17:47.002Z,50.43
2018-11-22T14:18:52.704Z,49.84
2018-11-22T14:19:57.400Z,50.18
2018-11-22T14:21:01.839Z,49.79
2018-11-22T14:22:06.686Z,49.48
2018-11-22T14:23:11.347Z,48.96
2018-11-22T14:24:16.241Z,48.55
2018-11-22T14:25:20.765Z,49.01
2018-11-22T14:26:24.711Z,48.93
2018-11-22T14:27:28.425Z,48.28
2018-11-22T14:28:31.860Z,48.69
2018-11-22T14:29:35.527Z,47.92
2018-11-22T14:30:38.949Z,47.90
2018-11-22T14:31:42.387Z,48.21
2018-11-22T14:32:46.623Z,48.43
2018-11-22T14:33:50.039Z,48.10
2018-11-22T14:34:56.535Z,48.30
2018-11-22T14:35:57.142Z,48.22
2018-11-22T14:37:01.222Z,48.54
2018-11-22T14:38:04.991Z,48.22
2018-11-22T14:39:08.675Z,48.05
2018-11-22T14:40:14.514Z,48.14
2018-11-22T14:41:18.367Z,47.91
2018-11-22T14:43:24.740Z,47.63
2018-11-22T14:44:28.179Z,47.45
2018-11-22T14:45:32.364Z,47.12
2018-11-22T14:46:35.910Z,47.68
2018-11-22T14:47:39.627Z,47.78
2018-11-22T14:48:43.043Z,47.53
2018-11-22T14:49:46.570Z,48.05
2018-11-22T14:51:01.550Z,48.27
2018-11-22T14:52:05.302Z,48.41
2018-11-22T14:53:12.720Z,48.17
2018-11-22T14:54:16.558Z,47.62
2018-11-22T14:55:20.257Z,47.46
2018-11-22T14:56:23.693Z,47.19
2018-11-22T14:57:27.156Z,47.00
2018-11-22T14:58:30.634Z,46.90
2018-11-22T14:59:34.422Z,46.84
2018-11-22T15:00:37.894Z,46.96
2018-11-22T15:01:41.337Z,47.18
2018-11-22T15:02:47.072Z,47.12
2018-11-22T15:03:50.764Z,47.18
2018-11-22T15:04:54.207Z,47.09
2018-11-22T15:05:57.634Z,47.24
2018-11-22T15:07:01.101Z,47.12
2018-11-22T15:08:04.559Z,47.82
2018-11-22T15:09:09.496Z,47.48
2018-11-22T15:10:14.234Z,47.02
2018-11-22T15:11:17.926Z,46.84
2018-11-22T15:12:21.447Z,46.99
2018-11-22T15:13:24.850Z,46.97
2018-11-22T15:14:28.281Z,46.86
2018-11-22T15:15:31.831Z,46.61
2018-11-22T15:16:35.978Z,47.07
2018-11-22T15:17:39.927Z,47.27
2018-11-22T15:18:43.374Z,46.82
2018-11-22T15:19:46.838Z,46.50
2018-11-22T15:20:50.278Z,47.00
2018-11-22T15:21:53.697Z,47.08
2018-11-22T15:22:57.116Z,46.95
2018-11-22T15:24:00.696Z,46.72
2018-11-22T15:25:04.286Z,47.26
2018-11-22T15:26:07.761Z,46.97
2018-11-22T15:27:11.202Z,46.92
2018-11-22T15:28:15.633Z,47.30
2018-11-22T15:29:19.218Z,46.92
2018-11-22T15:30:27.086Z,47.26
2018-11-22T15:31:30.840Z,46.93
2018-11-22T15:32:34.269Z,46.95
2018-11-22T15:33:37.824Z,46.56
2018-11-22T15:34:41.254Z,47.28
2018-11-22T15:35:45.055Z,47.22
2018-11-22T15:36:48.525Z,46.98
2018-11-22T15:37:52.416Z,47.62
2018-11-22T15:38:56.021Z,47.61
2018-11-22T15:39:59.595Z,47.45
2018-11-22T15:41:03.038Z,47.48
2018-11-22T15:42:06.470Z,47.10
2018-11-22T15:43:09.908Z,46.92
2018-11-22T15:44:13.453Z,46.93
2018-11-22T15:45:18.970Z,47.05
2018-11-22T15:46:22.492Z,47.23
2018-11-22T15:47:25.910Z,47.43
2018-11-22T15:48:29.309Z,47.24
2018-11-22T15:49:32.783Z,47.51
2018-11-22T15:50:36.207Z,47.43
2018-11-22T15:51:39.631Z,46.91
2018-11-22T15:52:43.577Z,47.46
2018-11-22T15:53:47.155Z,46.74
2018-11-22T15:54:50.615Z,47.24
2018-11-22T15:55:54.046Z,46.78
2018-11-22T15:56:57.482Z,46.93
2018-11-22T15:58:01.350Z,47.27
2018-11-22T15:59:04.794Z,46.99
2018-11-22T16:00:16.052Z,46.91
2018-11-22T16:01:19.728Z,47.26
2018-11-22T16:02:23.146Z,46.62
2018-11-22T16:03:26.576Z,47.13
2018-11-22T16:04:30.014Z,47.04
2018-11-22T16:05:33.776Z,47.24
2018-11-22T16:06:37.248Z,47.46
2018-11-22T16:07:41.175Z,47.17
2018-11-22T16:08:44.823Z,47.48
2018-11-22T16:09:48.407Z,47.51
2018-11-22T16:10:51.999Z,47.24
2018-11-22T16:11:55.756Z,46.56
2018-11-22T16:13:01.005Z,46.49
2018-11-22T16:14:05.378Z,46.85
2018-11-22T16:15:15.114Z,47.33
2018-11-22T16:16:18.759Z,46.92
2018-11-22T16:17:22.324Z,46.81
2018-11-22T16:18:25.707Z,47.26
2018-11-22T16:19:29.175Z,46.86
2018-11-22T16:20:32.694Z,47.37
2018-11-22T16:21:36.245Z,46.60
2018-11-22T16:22:40.167Z,46.89
2018-11-22T16:23:43.883Z,47.42
2018-11-22T16:24:47.848Z,47.44
2018-11-22T16:25:51.285Z,46.96
2018-11-22T16:26:54.742Z,46.54
2018-11-22T16:27:58.166Z,46.83
2018-11-22T16:29:01.637Z,46.71
2018-11-22T16:30:07.261Z,47.00
2018-11-22T16:31:10.713Z,46.83
2018-11-22T16:32:14.446Z,47.02
2018-11-22T16:33:18.114Z,46.98
2018-11-22T16:34:22.303Z,46.63
2018-11-22T16:35:33.201Z,46.63
2018-11-22T16:36:30.201Z,46.86
2018-11-22T16:37:33.613Z,46.44
2018-11-22T16:38:37.044Z,47.09
2018-11-22T16:39:40.484Z,46.69
2018-11-22T16:40:45.489Z,46.72
2018-11-22T16:41:49.016Z,46.90
2018-11-22T16:42:53.242Z,46.48
2018-11-22T16:43:59.623Z,46.81
2018-11-22T16:45:00.201Z,47.42
2018-11-22T16:46:03.646Z,47.09
2018-11-22T16:47:07.051Z,47.07
2018-11-22T16:48:12.048Z,47.10
2018-11-22T16:49:15.481Z,46.96
2018-11-22T16:50:22.900Z,46.97
2018-11-22T16:51:26.358Z,47.08
2018-11-22T16:52:29.780Z,47.08
2018-11-22T16:53:33.164Z,47.60
2018-11-22T16:54:36.596Z,47.35
2018-11-22T16:55:40.024Z,47.44
2018-11-22T16:56:43.537Z,46.99
2018-11-22T16:57:48.373Z,47.29
2018-11-22T16:58:51.833Z,46.43
2018-11-22T16:59:55.223Z,47.19
2018-11-22T17:00:58.674Z,47.01
2018-11-22T17:02:02.100Z,46.61
2018-11-22T17:03:10.332Z,46.27
2018-11-22T17:04:13.821Z,46.78
2018-11-22T17:05:17.538Z,46.78
2018-11-22T17:06:21.036Z,47.10
2018-11-22T17:07:24.482Z,46.62
2018-11-22T17:08:27.901Z,47.14
2018-11-22T17:09:31.444Z,47.31
2018-11-22T17:10:36.369Z,47.70
2018-11-22T17:11:39.795Z,47.13
2018-11-22T17:12:44.211Z,48.17
2018-11-22T17:13:47.783Z,47.52
2018-11-22T17:14:51.196Z,46.91
2018-11-22T17:15:54.597Z,47.05
2018-11-22T17:16:58.030Z,46.25
2018-11-22T17:18:01.879Z,45.25
2018-11-22T17:19:05.381Z,44.92
2018-11-22T17:20:11.090Z,44.89
2018-11-22T17:21:14.498Z,44.86
2018-11-22T17:22:17.958Z,44.93
2018-11-22T17:23:21.398Z,45.31
2018-11-22T17:24:24.795Z,45.29
2018-11-22T17:25:29.690Z,45.68
2018-11-22T17:26:33.150Z,45.38
2018-11-22T17:27:36.641Z,45.86
2018-11-22T17:28:40.156Z,45.86
2018-11-22T17:29:43.615Z,46.08
2018-11-22T17:30:47.109Z,45.36
2018-11-22T17:31:50.957Z,45.71
2018-11-22T17:32:56.674Z,45.45
2018-11-22T17:34:00.381Z,46.02
2018-11-22T17:35:04.355Z,46.02
2018-11-22T17:36:07.931Z,46.16
2018-11-22T17:37:12.214Z,46.56
2018-11-22T17:38:16.430Z,46.53
2018-11-22T17:39:21.342Z,46.37
2018-11-22T17:40:29.121Z,47.03
2018-11-22T17:41:32.596Z,47.01
2018-11-22T17:42:36.053Z,46.69
2018-11-22T17:43:39.503Z,46.66
2018-11-22T17:44:43.917Z,46.84
2018-11-22T17:45:49.001Z,47.11
2018-11-22T17:46:52.430Z,47.20
2018-11-22T17:47:55.897Z,46.60
2018-11-22T17:48:59.361Z,46.09
2018-11-22T17:50:02.751Z,46.73
2018-11-22T17:51:06.295Z,46.49
2018-11-22T17:52:09.742Z,46.00
2018-11-22T17:53:14.196Z,46.36
2018-11-22T17:54:17.893Z,46.16
2018-11-22T17:55:22.867Z,45.55
2018-11-22T17:56:26.278Z,45.60
2018-11-22T17:57:29.709Z,46.00
2018-11-22T17:58:33.146Z,45.43
2018-11-22T17:59:36.941Z,45.56
2018-11-22T18:00:42.966Z,45.91
2018-11-22T18:01:46.421Z,45.85
2018-11-22T18:02:51.270Z,45.98
2018-11-22T18:03:55.177Z,46.61
2018-11-22T18:04:58.622Z,46.57
2018-11-22T18:06:02.095Z,46.19
2018-11-22T18:07:05.980Z,46.47
2018-11-22T18:08:09.422Z,46.61
2018-11-22T18:09:12.921Z,46.44
2018-11-22T18:10:19.036Z,46.42
2018-11-22T18:11:22.457Z,46.82
2018-11-22T18:12:25.909Z,46.40
2018-11-22T18:13:29.415Z,47.39
2018-11-22T18:14:32.868Z,46.78
2018-11-22T18:16:08.084Z,47.27
2018-11-22T18:17:11.476Z,47.58
2018-11-22T18:18:14.966Z,47.34
2018-11-22T18:19:18.470Z,47.84
2018-11-22T18:20:23.184Z,47.30
2018-11-22T18:21:26.588Z,47.49
2018-11-22T18:22:30.000Z,47.73
2018-11-22T18:23:33.448Z,47.48
2018-11-22T18:24:36.843Z,47.73
2018-11-22T18:25:40.244Z,48.09
2018-11-22T18:26:43.715Z,47.92
2018-11-22T18:27:47.296Z,48.00
2018-11-22T18:28:50.733Z,48.23
2018-11-22T18:29:54.179Z,47.74
2018-11-22T18:30:57.625Z,47.31
2018-11-22T18:32:01.012Z,46.93
2018-11-22T18:33:05.890Z,47.01
2018-11-22T18:34:09.321Z,47.08
2018-11-22T18:35:13.468Z,46.44
2018-11-22T18:36:16.927Z,46.73
2018-11-22T18:37:20.359Z,46.91
2018-11-22T18:38:23.867Z,45.90
2018-11-22T18:39:27.268Z,46.04
2018-11-22T18:40:32.102Z,46.02
2018-11-22T18:41:37.097Z,45.98
2018-11-22T18:42:40.548Z,45.48
2018-11-22T18:43:44.814Z,45.82
2018-11-22T18:44:48.272Z,46.22
2018-11-22T18:45:51.882Z,45.39
2018-11-22T18:46:56.801Z,45.71
2018-11-22T18:48:01.318Z,45.72
2018-11-22T18:49:05.162Z,46.26
2018-11-22T18:50:22.100Z,45.74
2018-11-22T18:51:25.513Z,45.81
2018-11-22T18:52:28.926Z,46.40
2018-11-22T18:53:32.313Z,46.42
2018-11-22T18:54:35.730Z,46.22
2018-11-22T18:55:39.144Z,45.71
2018-11-22T18:56:42.577Z,45.63
2018-11-22T18:57:46.324Z,46.02
2018-11-22T18:58:49.789Z,45.82
2018-11-22T18:59:53.490Z,45.98
2018-11-22T19:00:57.281Z,46.05
2018-11-22T19:02:01.000Z,45.87
2018-11-22T19:03:09.052Z,45.92
2018-11-22T19:04:12.794Z,45.33
2018-11-22T19:05:16.888Z,45.53
2018-11-22T19:06:20.386Z,45.74
2018-11-22T19:07:24.012Z,45.67
2018-11-22T19:08:27.575Z,45.63
2018-11-22T19:09:31.319Z,45.65
2018-11-22T19:10:36.343Z,45.75
2018-11-22T19:11:39.921Z,45.72
2018-11-22T19:12:44.617Z,45.22
2018-11-22T19:13:48.218Z,45.16
2018-11-22T19:14:51.812Z,45.09
2018-11-22T19:15:55.314Z,45.21
2018-11-22T19:16:58.793Z,45.63
2018-11-22T19:18:02.428Z,45.25
2018-11-22T19:19:05.984Z,44.91
2018-11-22T19:20:12.004Z,45.10
2018-11-22T19:21:15.448Z,45.54
2018-11-22T19:22:18.902Z,44.96
2018-11-22T19:23:22.333Z,45.06
2018-11-22T19:24:25.740Z,45.19
2018-11-22T19:25:29.111Z,45.28
2018-11-22T19:26:32.496Z,45.17
2018-11-22T19:27:35.988Z,45.34
2018-11-22T19:28:39.390Z,45.85
2018-11-22T19:29:43.139Z,46.06
2018-11-22T19:30:47.967Z,46.12
2018-11-22T19:31:51.415Z,45.54
2018-11-22T19:32:55.969Z,45.61
2018-11-22T19:33:59.406Z,46.17
2018-11-22T19:35:02.829Z,46.48
2018-11-22T19:36:07.173Z,46.41
2018-11-22T19:37:10.609Z,46.04
2018-11-22T19:38:14.343Z,45.77
2018-11-22T19:39:18.061Z,45.76
2018-11-22T19:40:26.025Z,45.74
2018-11-22T19:41:29.464Z,46.01
2018-11-22T19:42:32.897Z,46.10
2018-11-22T19:43:36.333Z,46.27
2018-11-22T19:44:39.762Z,46.32
2018-11-22T19:45:44.829Z,46.19
2018-11-22T19:46:48.326Z,46.13
2018-11-22T19:47:52.017Z,46.37
2018-11-22T19:48:55.419Z,46.35
2018-11-22T19:49:58.857Z,46.13
2018-11-22T19:51:05.878Z,46.13
2018-11-22T19:52:05.882Z,45.94
2018-11-22T19:53:10.930Z,46.46
2018-11-22T19:54:14.520Z,46.62
2018-11-22T19:55:19.407Z,46.34
2018-11-22T19:56:22.870Z,46.84
2018-11-22T19:57:26.315Z,46.58
2018-11-22T19:58:29.728Z,46.97
2018-11-22T19:59:33.167Z,47.10
2018-11-22T20:00:36.651Z,47.13
2018-11-22T20:01:40.068Z,47.21
2018-11-22T20:02:44.194Z,46.91
2018-11-22T20:03:47.653Z,46.51
2018-11-22T20:04:51.132Z,46.26
2018-11-22T20:05:54.714Z,46.96
2018-11-22T20:06:58.214Z,46.63
2018-11-22T20:08:03.215Z,46.78
2018-11-22T20:09:09.021Z,46.45
2018-11-22T20:10:18.353Z,45.99
2018-11-22T20:11:21.849Z,46.69
2018-11-22T20:12:25.307Z,46.71
2018-11-22T20:13:28.782Z,45.92
2018-11-22T20:14:32.199Z,46.44
2018-11-22T20:15:35.819Z,46.14
2018-11-22T20:16:39.229Z,45.88
2018-11-22T20:17:43.332Z,46.22
2018-11-22T20:18:46.813Z,46.29
2018-11-22T20:19:50.239Z,46.07
2018-11-22T20:20:53.668Z,46.84
2018-11-22T20:21:57.113Z,46.71
2018-11-22T20:23:00.521Z,46.81
2018-11-22T20:24:03.988Z,46.32
2018-11-22T20:25:07.463Z,46.80
2018-11-22T20:26:10.909Z,47.06
2018-11-22T20:27:14.374Z,46.68
2018-11-22T20:28:17.829Z,47.03
2018-11-22T20:29:21.281Z,47.38
2018-11-22T20:30:26.772Z,47.34
2018-11-22T20:31:30.383Z,46.50
2018-11-22T20:32:38.766Z,46.25
2018-11-22T20:33:37.501Z,46.31
2018-11-22T20:34:41.001Z,46.73
2018-11-22T20:35:44.725Z,46.39
2018-11-22T20:36:48.215Z,46.20
2018-11-22T20:37:52.227Z,46.92
2018-11-22T20:38:55.744Z,46.74
2018-11-22T20:39:59.221Z,46.37
2018-11-22T20:41:02.681Z,46.67
2018-11-22T20:42:06.371Z,46.71
2018-11-22T20:43:10.080Z,45.97
2018-11-22T20:44:13.550Z,46.56
2018-11-22T20:45:18.386Z,46.88
2018-11-22T20:46:21.823Z,46.46
2018-11-22T20:47:25.272Z,46.40
2018-11-22T20:48:28.737Z,46.71
2018-11-22T20:49:32.234Z,47.28
2018-11-22T20:50:36.185Z,46.69
2018-11-22T20:51:39.666Z,46.89
2018-11-22T20:52:43.164Z,47.05
2018-11-22T20:53:46.602Z,47.63
2018-11-22T20:54:50.195Z,47.35
2018-11-22T20:55:53.648Z,47.64
2018-11-22T20:56:57.088Z,47.04
2018-11-22T20:58:01.943Z,47.04
2018-11-22T20:59:05.425Z,47.32
2018-11-22T21:00:12.752Z,47.24
2018-11-22T21:01:16.208Z,46.91
2018-11-22T21:02:19.627Z,46.69
2018-11-22T21:03:23.031Z,46.65
2018-11-22T21:04:26.471Z,47.35
2018-11-22T21:05:30.652Z,46.71
2018-11-22T21:06:34.453Z,46.42
2018-11-22T21:07:37.896Z,47.07
2018-11-22T21:08:48.432Z,46.40
2018-11-22T21:09:44.832Z,46.53
2018-11-22T21:10:48.385Z,46.81
2018-11-22T21:11:51.837Z,46.50
2018-11-22T21:12:55.277Z,46.68
2018-11-22T21:13:58.766Z,46.99
2018-11-22T21:15:02.220Z,47.01
2018-11-22T21:16:06.134Z,46.96
2018-11-22T21:17:09.544Z,47.09
2018-11-22T21:18:13.018Z,46.97
2018-11-22T21:19:16.492Z,47.25
2018-11-22T21:20:21.539Z,46.67
2018-11-22T21:21:25.057Z,46.95
2018-11-22T21:22:28.511Z,47.46
2018-11-22T21:23:31.924Z,47.29
2018-11-22T21:24:35.458Z,47.36
2018-11-22T21:25:38.978Z,47.77
2018-11-22T21:26:42.400Z,48.14
2018-11-22T21:27:46.052Z,48.14
2018-11-22T21:28:49.480Z,48.05
2018-11-22T21:29:52.907Z,48.02
2018-11-22T21:30:56.366Z,47.13
2018-11-22T21:31:59.843Z,47.34
2018-11-22T21:33:03.614Z,47.39
2018-11-22T21:34:07.077Z,47.23
2018-11-22T21:35:10.632Z,47.81
2018-11-22T21:36:14.106Z,47.20
2018-11-22T21:37:17.570Z,47.51
2018-11-22T21:38:20.994Z,48.12
2018-11-22T21:39:24.466Z,48.31
2018-11-22T21:40:28.561Z,48.14
2018-11-22T21:41:32.080Z,47.71
2018-11-22T21:42:35.489Z,48.10
2018-11-22T21:43:38.958Z,48.39
2018-11-22T21:44:42.463Z,48.50
2018-11-22T21:45:45.864Z,48.96
2018-11-22T21:46:49.281Z,48.74
2018-11-22T21:47:52.694Z,48.65
2018-11-22T21:48:56.069Z,48.04
2018-11-22T21:49:59.501Z,48.44
2018-11-22T21:51:02.988Z,48.39
2018-11-22T21:52:06.425Z,48.05
2018-11-22T21:53:09.878Z,47.95
2018-11-22T21:54:13.327Z,48.01
2018-11-22T21:55:20.315Z,48.18
2018-11-22T21:56:23.737Z,48.37
2018-11-22T21:57:27.161Z,48.59
2018-11-22T21:58:30.584Z,47.99
2018-11-22T21:59:34.151Z,48.14
2018-11-22T22:00:39.388Z,48.71
2018-11-22T22:01:42.811Z,49.21
2018-11-22T22:02:52.502Z,48.95
2018-11-22T22:03:51.389Z,48.76
2018-11-22T22:04:54.798Z,49.27
2018-11-22T22:05:58.192Z,49.73
2018-11-22T22:07:01.602Z,49.57
2018-11-22T22:08:05.075Z,50.01
2018-11-22T22:09:09.032Z,49.53
2018-11-22T22:10:12.557Z,49.40
2018-11-22T22:11:16.005Z,49.08
2018-11-22T22:12:19.403Z,48.92
2018-11-22T22:13:22.872Z,49.77
2018-11-22T22:14:26.291Z,49.71
2018-11-22T22:15:31.045Z,49.77
2018-11-22T22:16:34.493Z,49.88
2018-11-22T22:17:38.299Z,49.67
2018-11-22T22:18:41.719Z,49.78
2018-11-22T22:19:45.271Z,50.04
2018-11-22T22:20:48.754Z,50.15
2018-11-22T22:21:52.185Z,50.53
2018-11-22T22:22:55.622Z,50.69
2018-11-22T22:23:59.016Z,50.96
2018-11-22T22:25:02.396Z,50.66
2018-11-22T22:26:05.934Z,50.98
2018-11-22T22:27:09.449Z,51.22
2018-11-22T22:28:12.926Z,51.22
2018-11-22T22:29:16.866Z,50.84
2018-11-22T22:30:25.774Z,50.55
2018-11-22T22:31:29.168Z,50.60
2018-11-22T22:32:32.680Z,50.59
2018-11-22T22:33:36.106Z,50.63
2018-11-22T22:34:39.501Z,50.32
2018-11-22T22:35:42.929Z,50.27
2018-11-22T22:36:46.373Z,50.55
2018-11-22T22:37:49.896Z,50.65
2018-11-22T22:38:53.419Z,50.78
2018-11-22T22:39:59.678Z,50.53
2018-11-22T22:41:00.272Z,51.17
2018-11-22T22:42:03.932Z,51.21
2018-11-22T22:43:07.393Z,50.75
2018-11-22T22:44:10.797Z,51.17
2018-11-22T22:45:15.317Z,51.04
2018-11-22T22:46:18.756Z,51.40
2018-11-22T22:47:22.150Z,51.17
2018-11-22T22:48:25.650Z,51.74
2018-11-22T22:49:29.231Z,52.01
2018-11-22T22:50:33.107Z,51.77
2018-11-22T22:51:36.509Z,51.65
2018-11-22T22:52:39.921Z,51.77
2018-11-22T22:53:43.361Z,51.59
2018-11-22T22:54:46.790Z,51.17
2018-11-22T22:55:50.190Z,51.56
2018-11-22T22:56:53.589Z,51.43
2018-11-22T22:57:57.000Z,51.41
2018-11-22T22:59:00.422Z,51.67
2018-11-22T23:00:03.949Z,51.31
2018-11-22T23:01:07.495Z,51.44
2018-11-22T23:02:10.918Z,51.80
2018-11-22T23:03:14.652Z,51.27
2018-11-22T23:04:18.188Z,51.56
2018-11-22T23:05:22.068Z,51.52
2018-11-22T23:06:25.485Z,52.25
2018-11-22T23:07:28.867Z,51.91
2018-11-22T23:08:32.267Z,52.45
2018-11-22T23:09:35.854Z,52.01
2018-11-22T23:10:39.358Z,52.87
2018-11-22T23:11:42.834Z,53.11
2018-11-22T23:12:46.255Z,52.91
2018-11-22T23:13:49.632Z,52.79
2018-11-22T23:14:53.062Z,52.71
2018-11-22T23:15:56.480Z,52.83
2018-11-22T23:16:59.920Z,52.34
2018-11-22T23:18:03.361Z,52.46
2018-11-22T23:19:06.783Z,52.39
2018-11-22T23:20:12.986Z,52.10
2018-11-22T23:21:16.443Z,52.15
2018-11-22T23:22:19.858Z,52.01
2018-11-22T23:23:23.268Z,52.22
2018-11-22T23:24:26.647Z,52.76
2018-11-22T23:25:30.618Z,52.41
2018-11-22T23:26:34.055Z,52.15
2018-11-22T23:27:37.818Z,52.67
2018-11-22T23:28:41.233Z,52.39
2018-11-22T23:29:44.639Z,52.67
2018-11-22T23:30:48.091Z,52.83
2018-11-22T23:31:51.734Z,52.52
2018-11-22T23:32:57.466Z,53.21
2018-11-22T23:34:00.862Z,53.00
2018-11-22T23:35:04.868Z,53.01
2018-11-22T23:36:08.316Z,53.00
2018-11-22T23:37:11.780Z,52.95
2018-11-22T23:38:15.203Z,53.06
2018-11-22T23:39:18.641Z,52.75
2018-11-22T23:40:24.295Z,52.95
2018-11-22T23:41:27.710Z,52.40
2018-11-22T23:42:31.184Z,52.59
2018-11-22T23:43:34.592Z,52.52
2018-11-22T23:44:38.087Z,52.46
2018-11-22T23:45:41.668Z,52.94
2018-11-22T23:46:45.119Z,52.56
2018-11-22T23:47:49.431Z,52.69
2018-11-22T23:48:52.865Z,52.52
2018-11-22T23:49:56.265Z,52.95
2018-11-22T23:50:59.696Z,53.20
2018-11-22T23:52:03.099Z,53.01
2018-11-22T23:53:06.519Z,53.49
2018-11-22T23:54:09.970Z,53.49
2018-11-22T23:55:13.389Z,53.67
2018-11-22T23:56:17.139Z,53.77
2018-11-22T23:57:20.794Z,53.40
2018-11-22T23:58:24.276Z,53.80
2018-11-22T23:59:27.639Z,54.28
